Portada
METAR-TAF:

METAR-TAF

Aeroports :

Merimbula, Austràlia

latitud: 36-54-31S, longitud: 149-54-05E, altitud: 2 m

Observació

L'informe es va fer fa 19 minuts, a les 08:00 UTC
Vent 4 kt del Est
Temperatura 20°C
Humitat 83%
Pressió 1017 hPa
Visibilitat 10 km o més
Cel cobert a una alçada de 1500 ft

METAR: YMER 030800Z AUTO 09004KT 9999 // OVC015 20/17 Q1017

Hora: 19:19 (08:19 UTC)


TAF: manca

Observacions i pronòstics meteorològics de més de 4000 aeroports (METAR i TAF).

Les estacions disponibles són els punts grocs i vermells al mapa.

Posi el ratolí al punt desitjat per veure el nom de l'estació.

Feu clic per veure les observacions i els pronòstics meteorològics.

Per canviar el mapa: feu clic els botons verds amb una creu de color negre per apropar; al botó verd amb un guió per allunyar la imatge; o en les fletxes verdes per a mapes adjacents.


METAR-TAF: